sensor_id;sensor_type;location;lat;lon;timestamp;P1;durP1;ratioP1;P2;durP2;ratioP2
52972;SDS011;38837;48.916;2.336;2023-11-21T00:01:59;3.70;;;2.05;;
52972;SDS011;38837;48.916;2.336;2023-11-21T00:04:01;4.18;;;1.83;;
52972;SDS011;38837;48.916;2.336;2023-11-21T00:06:03;4.13;;;2.00;;
52972;SDS011;38837;48.916;2.336;2023-11-21T00:08:05;5.97;;;2.50;;
52972;SDS011;38837;48.916;2.336;2023-11-21T00:10:07;5.90;;;2.30;;
52972;SDS011;38837;48.916;2.336;2023-11-21T00:12:11;4.35;;;2.10;;
52972;SDS011;38837;48.916;2.336;2023-11-21T00:14:15;4.80;;;2.33;;
52972;SDS011;38837;48.916;2.336;2023-11-21T00:16:17;2.75;;;1.65;;
52972;SDS011;38837;48.916;2.336;2023-11-21T00:18:20;4.72;;;1.92;;
52972;SDS011;38837;48.916;2.336;2023-11-21T00:20:22;3.23;;;1.67;;
52972;SDS011;38837;48.916;2.336;2023-11-21T00:22:25;6.60;;;2.55;;
52972;SDS011;38837;48.916;2.336;2023-11-21T00:24:27;3.38;;;1.90;;
52972;SDS011;38837;48.916;2.336;2023-11-21T00:26:28;3.85;;;2.00;;
52972;SDS011;38837;48.916;2.336;2023-11-21T00:30:34;3.83;;;2.03;;
52972;SDS011;38837;48.916;2.336;2023-11-21T00:32:36;4.55;;;1.90;;
52972;SDS011;38837;48.916;2.336;2023-11-21T00:34:39;4.43;;;2.30;;
52972;SDS011;38837;48.916;2.336;2023-11-21T00:36:41;5.18;;;2.10;;
52972;SDS011;38837;48.916;2.336;2023-11-21T00:38:43;3.83;;;2.15;;
52972;SDS011;38837;48.916;2.336;2023-11-21T00:40:45;3.58;;;1.95;;
52972;SDS011;38837;48.916;2.336;2023-11-21T00:42:47;4.25;;;1.90;;
52972;SDS011;38837;48.916;2.336;2023-11-21T00:44:49;5.75;;;2.30;;
52972;SDS011;38837;48.916;2.336;2023-11-21T00:46:51;3.72;;;2.17;;
52972;SDS011;38837;48.916;2.336;2023-11-21T00:48:53;3.67;;;1.73;;
52972;SDS011;38837;48.916;2.336;2023-11-21T00:50:55;6.57;;;2.60;;
52972;SDS011;38837;48.916;2.336;2023-11-21T00:52:58;4.60;;;2.25;;
52972;SDS011;38837;48.916;2.336;2023-11-21T00:55:00;3.42;;;2.25;;
52972;SDS011;38837;48.916;2.336;2023-11-21T00:57:02;6.25;;;2.38;;
52972;SDS011;38837;48.916;2.336;2023-11-21T00:59:04;4.53;;;2.05;;
52972;SDS011;38837;48.916;2.336;2023-11-21T01:01:06;4.80;;;2.13;;
52972;SDS011;38837;48.916;2.336;2023-11-21T01:03:08;5.93;;;2.25;;
52972;SDS011;38837;48.916;2.336;2023-11-21T01:05:10;3.13;;;1.83;;
52972;SDS011;38837;48.916;2.336;2023-11-21T01:07:12;3.75;;;2.08;;
52972;SDS011;38837;48.916;2.336;2023-11-21T01:09:15;3.38;;;2.00;;
52972;SDS011;38837;48.916;2.336;2023-11-21T01:11:19;3.45;;;2.03;;
52972;SDS011;38837;48.916;2.336;2023-11-21T01:13:21;3.60;;;2.00;;
52972;SDS011;38837;48.916;2.336;2023-11-21T01:15:23;3.65;;;1.67;;
52972;SDS011;38837;48.916;2.336;2023-11-21T01:19:29;3.20;;;1.90;;
52972;SDS011;38837;48.916;2.336;2023-11-21T01:21:31;4.53;;;2.08;;
52972;SDS011;38837;48.916;2.336;2023-11-21T01:23:33;4.68;;;2.25;;
52972;SDS011;38837;48.916;2.336;2023-11-21T01:25:35;3.53;;;2.00;;
52972;SDS011;38837;48.916;2.336;2023-11-21T01:27:37;4.10;;;1.90;;
52972;SDS011;38837;48.916;2.336;2023-11-21T01:29:39;4.88;;;2.10;;
52972;SDS011;38837;48.916;2.336;2023-11-21T01:31:41;4.03;;;2.00;;
52972;SDS011;38837;48.916;2.336;2023-11-21T01:33:43;3.38;;;1.70;;
52972;SDS011;38837;48.916;2.336;2023-11-21T01:35:45;4.43;;;2.00;;
52972;SDS011;38837;48.916;2.336;2023-11-21T01:37:48;3.80;;;1.95;;
52972;SDS011;38837;48.916;2.336;2023-11-21T01:39:49;4.93;;;2.00;;
52972;SDS011;38837;48.916;2.336;2023-11-21T01:41:51;4.03;;;2.05;;
52972;SDS011;38837;48.916;2.336;2023-11-21T01:43:54;4.55;;;1.80;;
52972;SDS011;38837;48.916;2.336;2023-11-21T01:45:57;4.03;;;2.38;;
52972;SDS011;38837;48.916;2.336;2023-11-21T01:48:00;4.73;;;2.63;;
52972;SDS011;38837;48.916;2.336;2023-11-21T01:50:04;4.78;;;2.40;;
52972;SDS011;38837;48.916;2.336;2023-11-21T01:52:08;4.00;;;2.35;;
52972;SDS011;38837;48.916;2.336;2023-11-21T01:54:12;5.32;;;2.28;;
52972;SDS011;38837;48.916;2.336;2023-11-21T01:56:18;5.30;;;2.40;;
52972;SDS011;38837;48.916;2.336;2023-11-21T01:58:20;4.30;;;2.33;;
52972;SDS011;38837;48.916;2.336;2023-11-21T02:00:23;6.63;;;2.28;;
52972;SDS011;38837;48.916;2.336;2023-11-21T02:02:25;4.07;;;2.20;;
52972;SDS011;38837;48.916;2.336;2023-11-21T02:04:27;4.85;;;2.00;;
52972;SDS011;38837;48.916;2.336;2023-11-21T02:06:29;4.43;;;2.33;;
52972;SDS011;38837;48.916;2.336;2023-11-21T02:08:32;4.10;;;2.53;;
52972;SDS011;38837;48.916;2.336;2023-11-21T02:10:34;5.22;;;2.20;;
52972;SDS011;38837;48.916;2.336;2023-11-21T02:12:38;4.70;;;2.20;;
52972;SDS011;38837;48.916;2.336;2023-11-21T02:14:40;3.50;;;2.10;;
52972;SDS011;38837;48.916;2.336;2023-11-21T02:16:42;6.05;;;2.33;;
52972;SDS011;38837;48.916;2.336;2023-11-21T02:18:47;4.80;;;2.67;;
52972;SDS011;38837;48.916;2.336;2023-11-21T02:20:50;5.78;;;2.40;;
52972;SDS011;38837;48.916;2.336;2023-11-21T02:22:55;4.22;;;2.40;;
52972;SDS011;38837;48.916;2.336;2023-11-21T02:25:02;4.10;;;2.55;;
52972;SDS011;38837;48.916;2.336;2023-11-21T02:27:05;6.03;;;2.60;;
52972;SDS011;38837;48.916;2.336;2023-11-21T02:29:07;5.93;;;2.35;;
52972;SDS011;38837;48.916;2.336;2023-11-21T02:31:13;4.28;;;2.30;;
52972;SDS011;38837;48.916;2.336;2023-11-21T02:33:15;6.45;;;2.50;;
52972;SDS011;38837;48.916;2.336;2023-11-21T02:35:17;4.88;;;2.28;;
52972;SDS011;38837;48.916;2.336;2023-11-21T02:37:18;4.50;;;2.28;;
52972;SDS011;38837;48.916;2.336;2023-11-21T02:39:21;4.28;;;2.17;;
52972;SDS011;38837;48.916;2.336;2023-11-21T02:41:26;3.67;;;2.33;;
52972;SDS011;38837;48.916;2.336;2023-11-21T02:43:28;3.83;;;2.15;;
52972;SDS011;38837;48.916;2.336;2023-11-21T02:45:29;7.18;;;2.40;;
52972;SDS011;38837;48.916;2.336;2023-11-21T02:47:31;5.85;;;2.30;;
52972;SDS011;38837;48.916;2.336;2023-11-21T02:49:33;4.07;;;2.17;;
52972;SDS011;38837;48.916;2.336;2023-11-21T02:51:37;4.55;;;2.10;;
52972;SDS011;38837;48.916;2.336;2023-11-21T02:53:41;4.50;;;2.58;;
52972;SDS011;38837;48.916;2.336;2023-11-21T02:55:43;4.00;;;2.00;;
52972;SDS011;38837;48.916;2.336;2023-11-21T02:57:45;3.35;;;1.75;;
52972;SDS011;38837;48.916;2.336;2023-11-21T02:59:47;3.85;;;1.65;;
52972;SDS011;38837;48.916;2.336;2023-11-21T03:01:49;3.88;;;1.85;;
52972;SDS011;38837;48.916;2.336;2023-11-21T03:03:51;4.00;;;2.25;;
52972;SDS011;38837;48.916;2.336;2023-11-21T03:05:53;4.47;;;2.30;;
52972;SDS011;38837;48.916;2.336;2023-11-21T03:07:55;5.28;;;2.17;;
52972;SDS011;38837;48.916;2.336;2023-11-21T03:09:57;4.55;;;1.98;;
52972;SDS011;38837;48.916;2.336;2023-11-21T03:11:59;4.93;;;2.15;;
52972;SDS011;38837;48.916;2.336;2023-11-21T03:14:00;2.70;;;1.70;;
52972;SDS011;38837;48.916;2.336;2023-11-21T03:16:02;4.50;;;2.00;;
52972;SDS011;38837;48.916;2.336;2023-11-21T03:18:04;4.30;;;1.83;;
52972;SDS011;38837;48.916;2.336;2023-11-21T03:20:06;4.72;;;1.98;;
52972;SDS011;38837;48.916;2.336;2023-11-21T03:22:12;4.45;;;1.70;;
52972;SDS011;38837;48.916;2.336;2023-11-21T03:24:14;3.05;;;1.88;;
52972;SDS011;38837;48.916;2.336;2023-11-21T03:26:20;4.82;;;2.15;;
52972;SDS011;38837;48.916;2.336;2023-11-21T03:28:22;3.38;;;1.70;;
52972;SDS011;38837;48.916;2.336;2023-11-21T03:30:25;2.67;;;1.83;;
52972;SDS011;38837;48.916;2.336;2023-11-21T03:32:26;4.35;;;1.98;;
52972;SDS011;38837;48.916;2.336;2023-11-21T03:34:28;3.65;;;1.95;;
52972;SDS011;38837;48.916;2.336;2023-11-21T03:36:30;3.28;;;1.70;;
52972;SDS011;38837;48.916;2.336;2023-11-21T03:38:32;3.75;;;1.80;;
52972;SDS011;38837;48.916;2.336;2023-11-21T03:40:34;4.47;;;1.80;;
52972;SDS011;38837;48.916;2.336;2023-11-21T03:42:36;2.85;;;2.13;;
52972;SDS011;38837;48.916;2.336;2023-11-21T03:44:38;3.47;;;1.80;;
52972;SDS011;38837;48.916;2.336;2023-11-21T03:46:40;4.45;;;2.00;;
52972;SDS011;38837;48.916;2.336;2023-11-21T03:48:42;5.53;;;2.00;;
52972;SDS011;38837;48.916;2.336;2023-11-21T03:50:44;5.35;;;1.88;;
52972;SDS011;38837;48.916;2.336;2023-11-21T03:52:46;4.10;;;1.98;;
52972;SDS011;38837;48.916;2.336;2023-11-21T03:54:47;4.07;;;1.92;;
52972;SDS011;38837;48.916;2.336;2023-11-21T03:56:49;4.43;;;1.98;;
52972;SDS011;38837;48.916;2.336;2023-11-21T03:58:51;4.82;;;1.92;;
52972;SDS011;38837;48.916;2.336;2023-11-21T04:00:53;4.10;;;2.10;;
52972;SDS011;38837;48.916;2.336;2023-11-21T04:02:55;4.32;;;1.63;;
52972;SDS011;38837;48.916;2.336;2023-11-21T04:04:57;4.45;;;2.10;;
52972;SDS011;38837;48.916;2.336;2023-11-21T04:06:59;3.67;;;1.70;;
52972;SDS011;38837;48.916;2.336;2023-11-21T04:09:01;5.60;;;2.08;;
52972;SDS011;38837;48.916;2.336;2023-11-21T04:11:05;3.30;;;1.70;;
52972;SDS011;38837;48.916;2.336;2023-11-21T04:13:07;4.85;;;2.20;;
52972;SDS011;38837;48.916;2.336;2023-11-21T04:15:09;3.35;;;1.65;;
52972;SDS011;38837;48.916;2.336;2023-11-21T04:17:11;2.72;;;1.70;;
52972;SDS011;38837;48.916;2.336;2023-11-21T04:19:14;3.78;;;1.88;;
52972;SDS011;38837;48.916;2.336;2023-11-21T04:21:16;2.55;;;1.40;;
52972;SDS011;38837;48.916;2.336;2023-11-21T04:23:18;2.13;;;1.38;;
52972;SDS011;38837;48.916;2.336;2023-11-21T04:25:19;3.85;;;2.05;;
52972;SDS011;38837;48.916;2.336;2023-11-21T04:27:22;3.80;;;1.52;;
52972;SDS011;38837;48.916;2.336;2023-11-21T04:29:24;3.08;;;1.80;;
52972;SDS011;38837;48.916;2.336;2023-11-21T04:31:26;2.78;;;1.55;;
52972;SDS011;38837;48.916;2.336;2023-11-21T04:33:28;4.43;;;1.85;;
52972;SDS011;38837;48.916;2.336;2023-11-21T04:35:30;2.10;;;1.27;;
52972;SDS011;38837;48.916;2.336;2023-11-21T04:37:32;3.83;;;1.73;;
52972;SDS011;38837;48.916;2.336;2023-11-21T04:39:34;4.55;;;1.40;;
52972;SDS011;38837;48.916;2.336;2023-11-21T04:41:36;3.13;;;1.73;;
52972;SDS011;38837;48.916;2.336;2023-11-21T04:43:40;4.50;;;1.67;;
52972;SDS011;38837;48.916;2.336;2023-11-21T04:45:43;5.43;;;1.83;;
52972;SDS011;38837;48.916;2.336;2023-11-21T04:47:45;4.93;;;2.05;;
52972;SDS011;38837;48.916;2.336;2023-11-21T04:49:47;3.22;;;1.50;;
52972;SDS011;38837;48.916;2.336;2023-11-21T04:51:49;2.95;;;1.75;;
52972;SDS011;38837;48.916;2.336;2023-11-21T04:53:51;3.75;;;1.55;;
52972;SDS011;38837;48.916;2.336;2023-11-21T04:55:53;3.42;;;1.85;;
52972;SDS011;38837;48.916;2.336;2023-11-21T04:57:55;2.78;;;1.55;;
52972;SDS011;38837;48.916;2.336;2023-11-21T04:59:57;4.25;;;1.48;;
52972;SDS011;38837;48.916;2.336;2023-11-21T05:01:59;4.13;;;1.77;;
52972;SDS011;38837;48.916;2.336;2023-11-21T05:04:01;4.18;;;1.50;;
52972;SDS011;38837;48.916;2.336;2023-11-21T05:06:04;7.75;;;1.73;;
52972;SDS011;38837;48.916;2.336;2023-11-21T05:08:06;2.10;;;1.40;;
52972;SDS011;38837;48.916;2.336;2023-11-21T05:10:09;4.00;;;1.50;;
52972;SDS011;38837;48.916;2.336;2023-11-21T05:12:16;2.83;;;1.77;;
52972;SDS011;38837;48.916;2.336;2023-11-21T05:14:17;2.90;;;1.52;;
52972;SDS011;38837;48.916;2.336;2023-11-21T05:16:20;4.40;;;1.70;;
52972;SDS011;38837;48.916;2.336;2023-11-21T05:18:22;3.63;;;1.80;;
52972;SDS011;38837;48.916;2.336;2023-11-21T05:20:24;1.98;;;1.40;;
52972;SDS011;38837;48.916;2.336;2023-11-21T05:22:25;3.05;;;1.55;;
52972;SDS011;38837;48.916;2.336;2023-11-21T05:24:27;2.80;;;1.35;;
52972;SDS011;38837;48.916;2.336;2023-11-21T05:26:29;3.25;;;1.50;;
52972;SDS011;38837;48.916;2.336;2023-11-21T05:28:31;4.07;;;1.75;;
52972;SDS011;38837;48.916;2.336;2023-11-21T05:30:33;4.50;;;1.67;;
52972;SDS011;38837;48.916;2.336;2023-11-21T05:32:35;4.18;;;1.70;;
52972;SDS011;38837;48.916;2.336;2023-11-21T05:34:37;4.22;;;1.45;;
52972;SDS011;38837;48.916;2.336;2023-11-21T05:36:39;3.33;;;1.67;;
52972;SDS011;38837;48.916;2.336;2023-11-21T05:38:41;2.05;;;1.50;;
52972;SDS011;38837;48.916;2.336;2023-11-21T05:40:43;2.35;;;1.42;;
52972;SDS011;38837;48.916;2.336;2023-11-21T05:42:45;2.03;;;1.63;;
52972;SDS011;38837;48.916;2.336;2023-11-21T05:44:47;1.55;;;1.20;;
52972;SDS011;38837;48.916;2.336;2023-11-21T05:46:49;3.47;;;1.80;;
52972;SDS011;38837;48.916;2.336;2023-11-21T05:48:51;2.60;;;1.50;;
52972;SDS011;38837;48.916;2.336;2023-11-21T05:50:53;2.10;;;1.30;;
52972;SDS011;38837;48.916;2.336;2023-11-21T05:52:55;3.15;;;1.42;;
52972;SDS011;38837;48.916;2.336;2023-11-21T05:54:57;2.67;;;1.23;;
52972;SDS011;38837;48.916;2.336;2023-11-21T05:56:59;3.28;;;1.25;;
52972;SDS011;38837;48.916;2.336;2023-11-21T05:59:01;2.58;;;1.40;;
52972;SDS011;38837;48.916;2.336;2023-11-21T06:01:05;4.07;;;1.55;;
52972;SDS011;38837;48.916;2.336;2023-11-21T06:03:10;3.00;;;1.40;;
52972;SDS011;38837;48.916;2.336;2023-11-21T06:05:12;2.92;;;1.50;;
52972;SDS011;38837;48.916;2.336;2023-11-21T06:07:14;2.83;;;1.70;;
52972;SDS011;38837;48.916;2.336;2023-11-21T06:09:16;2.85;;;1.35;;
52972;SDS011;38837;48.916;2.336;2023-11-21T06:11:18;1.55;;;1.27;;
52972;SDS011;38837;48.916;2.336;2023-11-21T06:13:19;2.38;;;1.30;;
52972;SDS011;38837;48.916;2.336;2023-11-21T06:15:25;2.67;;;1.70;;
52972;SDS011;38837;48.916;2.336;2023-11-21T06:17:27;2.20;;;1.30;;
52972;SDS011;38837;48.916;2.336;2023-11-21T06:19:30;2.70;;;1.40;;
52972;SDS011;38837;48.916;2.336;2023-11-21T06:21:32;2.65;;;1.27;;
52972;SDS011;38837;48.916;2.336;2023-11-21T06:23:35;2.63;;;1.40;;
52972;SDS011;38837;48.916;2.336;2023-11-21T06:25:37;2.58;;;1.30;;
52972;SDS011;38837;48.916;2.336;2023-11-21T06:27:39;2.97;;;1.45;;
52972;SDS011;38837;48.916;2.336;2023-11-21T06:29:43;2.35;;;1.30;;
52972;SDS011;38837;48.916;2.336;2023-11-21T06:31:45;1.92;;;1.20;;
52972;SDS011;38837;48.916;2.336;2023-11-21T06:33:47;2.22;;;1.40;;
52972;SDS011;38837;48.916;2.336;2023-11-21T06:35:49;2.30;;;1.52;;
52972;SDS011;38837;48.916;2.336;2023-11-21T06:37:51;1.40;;;1.30;;
52972;SDS011;38837;48.916;2.336;2023-11-21T06:39:53;2.88;;;1.02;;
52972;SDS011;38837;48.916;2.336;2023-11-21T06:41:55;2.33;;;1.23;;
52972;SDS011;38837;48.916;2.336;2023-11-21T06:43:57;2.88;;;1.27;;
52972;SDS011;38837;48.916;2.336;2023-11-21T06:46:00;3.07;;;1.27;;
52972;SDS011;38837;48.916;2.336;2023-11-21T06:48:02;1.80;;;1.10;;
52972;SDS011;38837;48.916;2.336;2023-11-21T06:50:04;2.35;;;1.10;;
52972;SDS011;38837;48.916;2.336;2023-11-21T06:54:10;1.98;;;1.35;;
52972;SDS011;38837;48.916;2.336;2023-11-21T06:56:15;1.58;;;1.00;;
52972;SDS011;38837;48.916;2.336;2023-11-21T06:58:20;3.50;;;1.20;;
52972;SDS011;38837;48.916;2.336;2023-11-21T07:00:21;2.85;;;1.10;;
52972;SDS011;38837;48.916;2.336;2023-11-21T07:02:24;3.05;;;1.17;;
52972;SDS011;38837;48.916;2.336;2023-11-21T07:04:26;3.03;;;1.27;;
52972;SDS011;38837;48.916;2.336;2023-11-21T07:06:28;4.60;;;1.63;;
52972;SDS011;38837;48.916;2.336;2023-11-21T07:08:29;2.22;;;1.13;;
52972;SDS011;38837;48.916;2.336;2023-11-21T07:10:31;3.30;;;1.40;;
52972;SDS011;38837;48.916;2.336;2023-11-21T07:12:33;2.55;;;1.30;;
52972;SDS011;38837;48.916;2.336;2023-11-21T07:14:36;2.95;;;1.30;;
52972;SDS011;38837;48.916;2.336;2023-11-21T07:18:42;1.80;;;1.20;;
52972;SDS011;38837;48.916;2.336;2023-11-21T07:20:44;1.67;;;1.02;;
52972;SDS011;38837;48.916;2.336;2023-11-21T07:22:45;1.27;;;1.10;;
52972;SDS011;38837;48.916;2.336;2023-11-21T07:24:48;1.88;;;1.20;;
52972;SDS011;38837;48.916;2.336;2023-11-21T07:28:58;5.03;;;1.10;;
52972;SDS011;38837;48.916;2.336;2023-11-21T07:31:00;1.35;;;1.15;;
52972;SDS011;38837;48.916;2.336;2023-11-21T07:33:03;1.50;;;1.10;;
52972;SDS011;38837;48.916;2.336;2023-11-21T07:35:04;3.03;;;1.38;;
52972;SDS011;38837;48.916;2.336;2023-11-21T07:37:08;1.23;;;1.13;;
52972;SDS011;38837;48.916;2.336;2023-11-21T07:39:10;1.52;;;1.30;;
52972;SDS011;38837;48.916;2.336;2023-11-21T07:41:12;4.75;;;0.90;;
52972;SDS011;38837;48.916;2.336;2023-11-21T07:43:31;4.05;;;1.42;;
52972;SDS011;38837;48.916;2.336;2023-11-21T07:45:36;1.83;;;1.20;;
52972;SDS011;38837;48.916;2.336;2023-11-21T07:47:38;3.65;;;1.60;;
52972;SDS011;38837;48.916;2.336;2023-11-21T07:49:41;2.55;;;1.38;;
52972;SDS011;38837;48.916;2.336;2023-11-21T07:51:45;5.25;;;1.55;;
52972;SDS011;38837;48.916;2.336;2023-11-21T07:53:47;5.10;;;1.60;;
52972;SDS011;38837;48.916;2.336;2023-11-21T07:55:49;2.20;;;1.52;;
52972;SDS011;38837;48.916;2.336;2023-11-21T07:57:51;2.60;;;1.50;;
52972;SDS011;38837;48.916;2.336;2023-11-21T07:59:52;2.65;;;1.30;;
52972;SDS011;38837;48.916;2.336;2023-11-21T08:01:58;2.60;;;1.58;;
52972;SDS011;38837;48.916;2.336;2023-11-21T08:04:00;2.80;;;1.30;;
52972;SDS011;38837;48.916;2.336;2023-11-21T08:06:06;1.83;;;1.45;;
52972;SDS011;38837;48.916;2.336;2023-11-21T08:08:08;3.17;;;1.48;;
52972;SDS011;38837;48.916;2.336;2023-11-21T08:10:10;3.38;;;1.50;;
52972;SDS011;38837;48.916;2.336;2023-11-21T08:12:12;3.10;;;1.60;;
52972;SDS011;38837;48.916;2.336;2023-11-21T08:14:14;2.55;;;1.70;;
52972;SDS011;38837;48.916;2.336;2023-11-21T08:16:16;2.72;;;1.70;;
52972;SDS011;38837;48.916;2.336;2023-11-21T08:18:18;3.85;;;1.60;;
52972;SDS011;38837;48.916;2.336;2023-11-21T08:20:20;4.60;;;1.67;;
52972;SDS011;38837;48.916;2.336;2023-11-21T08:24:26;3.75;;;1.50;;
52972;SDS011;38837;48.916;2.336;2023-11-21T08:26:28;3.10;;;1.67;;
52972;SDS011;38837;48.916;2.336;2023-11-21T08:28:30;2.67;;;1.88;;
52972;SDS011;38837;48.916;2.336;2023-11-21T08:30:32;7.00;;;2.08;;
52972;SDS011;38837;48.916;2.336;2023-11-21T08:32:36;3.42;;;1.70;;
52972;SDS011;38837;48.916;2.336;2023-11-21T08:34:38;2.53;;;1.63;;
52972;SDS011;38837;48.916;2.336;2023-11-21T08:36:44;1.52;;;1.40;;
52972;SDS011;38837;48.916;2.336;2023-11-21T08:38:47;3.58;;;2.05;;
52972;SDS011;38837;48.916;2.336;2023-11-21T08:40:50;2.08;;;1.42;;
52972;SDS011;38837;48.916;2.336;2023-11-21T08:42:52;2.83;;;1.48;;
52972;SDS011;38837;48.916;2.336;2023-11-21T08:44:53;2.45;;;1.63;;
52972;SDS011;38837;48.916;2.336;2023-11-21T08:46:55;2.15;;;1.42;;
52972;SDS011;38837;48.916;2.336;2023-11-21T08:48:57;5.88;;;1.95;;
52972;SDS011;38837;48.916;2.336;2023-11-21T08:50:59;2.10;;;1.65;;
52972;SDS011;38837;48.916;2.336;2023-11-21T08:53:01;2.33;;;1.58;;
52972;SDS011;38837;48.916;2.336;2023-11-21T08:55:04;2.33;;;1.50;;
52972;SDS011;38837;48.916;2.336;2023-11-21T08:57:09;2.50;;;1.60;;
52972;SDS011;38837;48.916;2.336;2023-11-21T08:59:11;3.88;;;1.63;;
52972;SDS011;38837;48.916;2.336;2023-11-21T09:01:16;3.15;;;1.80;;
52972;SDS011;38837;48.916;2.336;2023-11-21T09:03:18;3.45;;;1.73;;
52972;SDS011;38837;48.916;2.336;2023-11-21T09:05:20;4.28;;;1.73;;
52972;SDS011;38837;48.916;2.336;2023-11-21T09:07:22;2.83;;;1.60;;
52972;SDS011;38837;48.916;2.336;2023-11-21T09:09:24;3.67;;;1.70;;
52972;SDS011;38837;48.916;2.336;2023-11-21T09:11:26;4.75;;;1.70;;
52972;SDS011;38837;48.916;2.336;2023-11-21T09:13:34;3.20;;;1.67;;
52972;SDS011;38837;48.916;2.336;2023-11-21T09:15:37;4.35;;;1.50;;
52972;SDS011;38837;48.916;2.336;2023-11-21T09:17:39;3.75;;;1.63;;
52972;SDS011;38837;48.916;2.336;2023-11-21T09:19:42;2.30;;;1.25;;
52972;SDS011;38837;48.916;2.336;2023-11-21T09:21:51;2.03;;;1.50;;
52972;SDS011;38837;48.916;2.336;2023-11-21T09:23:53;1.55;;;1.27;;
52972;SDS011;38837;48.916;2.336;2023-11-21T09:25:55;2.30;;;1.50;;
52972;SDS011;38837;48.916;2.336;2023-11-21T09:27:58;2.35;;;1.48;;
52972;SDS011;38837;48.916;2.336;2023-11-21T09:30:01;3.45;;;1.65;;
52972;SDS011;38837;48.916;2.336;2023-11-21T09:32:04;2.30;;;1.48;;
52972;SDS011;38837;48.916;2.336;2023-11-21T09:34:07;2.97;;;1.48;;
52972;SDS011;38837;48.916;2.336;2023-11-21T09:36:12;3.35;;;1.50;;
52972;SDS011;38837;48.916;2.336;2023-11-21T09:38:16;1.90;;;1.30;;
52972;SDS011;38837;48.916;2.336;2023-11-21T09:40:19;2.97;;;1.33;;
52972;SDS011;38837;48.916;2.336;2023-11-21T09:42:25;6.53;;;1.50;;
52972;SDS011;38837;48.916;2.336;2023-11-21T09:46:47;2.88;;;1.55;;
52972;SDS011;38837;48.916;2.336;2023-11-21T09:48:51;2.63;;;1.55;;
52972;SDS011;38837;48.916;2.336;2023-11-21T09:50:57;2.20;;;1.33;;
52972;SDS011;38837;48.916;2.336;2023-11-21T09:53:17;1.67;;;1.30;;
52972;SDS011;38837;48.916;2.336;2023-11-21T09:55:22;3.05;;;1.40;;
52972;SDS011;38837;48.916;2.336;2023-11-21T09:57:28;3.28;;;1.20;;
52972;SDS011;38837;48.916;2.336;2023-11-21T09:59:31;2.57;;;1.17;;
52972;SDS011;38837;48.916;2.336;2023-11-21T10:01:35;3.38;;;1.27;;
52972;SDS011;38837;48.916;2.336;2023-11-21T10:03:39;2.58;;;1.20;;
52972;SDS011;38837;48.916;2.336;2023-11-21T10:05:44;1.27;;;1.13;;
52972;SDS011;38837;48.916;2.336;2023-11-21T10:07:51;1.40;;;1.30;;
52972;SDS011;38837;48.916;2.336;2023-11-21T10:09:54;1.35;;;1.10;;
52972;SDS011;38837;48.916;2.336;2023-11-21T10:11:58;2.33;;;1.35;;
52972;SDS011;38837;48.916;2.336;2023-11-21T10:14:02;6.07;;;1.40;;
52972;SDS011;38837;48.916;2.336;2023-11-21T10:16:05;1.63;;;1.00;;
52972;SDS011;38837;48.916;2.336;2023-11-21T10:18:13;1.40;;;1.00;;
52972;SDS011;38837;48.916;2.336;2023-11-21T10:20:16;2.88;;;1.08;;
52972;SDS011;38837;48.916;2.336;2023-11-21T10:22:19;1.95;;;1.17;;
52972;SDS011;38837;48.916;2.336;2023-11-21T10:24:23;1.50;;;1.15;;
52972;SDS011;38837;48.916;2.336;2023-11-21T10:26:25;1.48;;;0.90;;
52972;SDS011;38837;48.916;2.336;2023-11-21T10:28:35;1.60;;;1.17;;
52972;SDS011;38837;48.916;2.336;2023-11-21T10:30:38;3.85;;;1.00;;
52972;SDS011;38837;48.916;2.336;2023-11-21T10:32:41;1.15;;;0.80;;
52972;SDS011;38837;48.916;2.336;2023-11-21T10:34:55;1.85;;;1.10;;
52972;SDS011;38837;48.916;2.336;2023-11-21T10:36:57;1.25;;;1.00;;
52972;SDS011;38837;48.916;2.336;2023-11-21T10:38:59;2.22;;;1.20;;
52972;SDS011;38837;48.916;2.336;2023-11-21T10:41:01;3.35;;;1.25;;
52972;SDS011;38837;48.916;2.336;2023-11-21T10:43:06;1.67;;;0.80;;
52972;SDS011;38837;48.916;2.336;2023-11-21T10:45:10;2.75;;;1.02;;
52972;SDS011;38837;48.916;2.336;2023-11-21T10:47:16;2.28;;;1.10;;
52972;SDS011;38837;48.916;2.336;2023-11-21T10:49:20;2.80;;;1.10;;
52972;SDS011;38837;48.916;2.336;2023-11-21T10:51:22;4.22;;;0.90;;
52972;SDS011;38837;48.916;2.336;2023-11-21T10:53:28;1.25;;;1.00;;
52972;SDS011;38837;48.916;2.336;2023-11-21T10:55:31;2.33;;;0.80;;
52972;SDS011;38837;48.916;2.336;2023-11-21T10:57:34;3.72;;;1.00;;
52972;SDS011;38837;48.916;2.336;2023-11-21T10:59:36;1.08;;;0.90;;
52972;SDS011;38837;48.916;2.336;2023-11-21T11:01:38;2.42;;;1.15;;
52972;SDS011;38837;48.916;2.336;2023-11-21T11:03:41;1.10;;;0.80;;
52972;SDS011;38837;48.916;2.336;2023-11-21T11:05:43;1.95;;;1.05;;
52972;SDS011;38837;48.916;2.336;2023-11-21T11:08:08;1.50;;;0.85;;
52972;SDS011;38837;48.916;2.336;2023-11-21T11:10:12;2.40;;;0.82;;
52972;SDS011;38837;48.916;2.336;2023-11-21T11:12:15;2.65;;;1.35;;
52972;SDS011;38837;48.916;2.336;2023-11-21T11:14:18;1.33;;;0.80;;
52972;SDS011;38837;48.916;2.336;2023-11-21T11:16:21;3.40;;;0.98;;
52972;SDS011;38837;48.916;2.336;2023-11-21T11:18:26;3.38;;;0.95;;
52972;SDS011;38837;48.916;2.336;2023-11-21T11:20:32;1.98;;;1.00;;
52972;SDS011;38837;48.916;2.336;2023-11-21T11:25:18;2.10;;;0.82;;
52972;SDS011;38837;48.916;2.336;2023-11-21T11:27:37;1.38;;;0.85;;
52972;SDS011;38837;48.916;2.336;2023-11-21T11:34:28;2.13;;;0.82;;
52972;SDS011;38837;48.916;2.336;2023-11-21T11:36:37;1.65;;;0.80;;
52972;SDS011;38837;48.916;2.336;2023-11-21T11:38:46;0.93;;;0.80;;
52972;SDS011;38837;48.916;2.336;2023-11-21T11:40:52;1.08;;;0.80;;
52972;SDS011;38837;48.916;2.336;2023-11-21T11:42:57;3.78;;;0.90;;
52972;SDS011;38837;48.916;2.336;2023-11-21T11:45:16;1.55;;;0.70;;
52972;SDS011;38837;48.916;2.336;2023-11-21T11:47:29;2.22;;;0.85;;
52972;SDS011;38837;48.916;2.336;2023-11-21T11:49:47;2.40;;;0.88;;
52972;SDS011;38837;48.916;2.336;2023-11-21T11:54:36;1.55;;;0.80;;
52972;SDS011;38837;48.916;2.336;2023-11-21T11:56:38;2.40;;;1.13;;
52972;SDS011;38837;48.916;2.336;2023-11-21T11:58:41;1.60;;;1.00;;
52972;SDS011;38837;48.916;2.336;2023-11-21T12:00:43;3.03;;;0.90;;
52972;SDS011;38837;48.916;2.336;2023-11-21T12:02:48;2.55;;;1.00;;
52972;SDS011;38837;48.916;2.336;2023-11-21T12:04:55;2.03;;;0.80;;
52972;SDS011;38837;48.916;2.336;2023-11-21T12:06:59;2.45;;;0.90;;
52972;SDS011;38837;48.916;2.336;2023-11-21T12:09:03;2.70;;;0.90;;
52972;SDS011;38837;48.916;2.336;2023-11-21T12:11:06;1.13;;;0.70;;
52972;SDS011;38837;48.916;2.336;2023-11-21T12:13:09;4.40;;;0.80;;
52972;SDS011;38837;48.916;2.336;2023-11-21T12:15:13;1.58;;;0.82;;
52972;SDS011;38837;48.916;2.336;2023-11-21T12:17:15;1.23;;;0.70;;
52972;SDS011;38837;48.916;2.336;2023-11-21T12:19:17;4.30;;;0.80;;
52972;SDS011;38837;48.916;2.336;2023-11-21T12:21:20;4.55;;;0.88;;
52972;SDS011;38837;48.916;2.336;2023-11-21T12:23:23;3.92;;;0.95;;
52972;SDS011;38837;48.916;2.336;2023-11-21T12:25:27;7.18;;;1.13;;
52972;SDS011;38837;48.916;2.336;2023-11-21T12:27:33;9.13;;;0.85;;
52972;SDS011;38837;48.916;2.336;2023-11-21T12:29:36;7.95;;;1.00;;
52972;SDS011;38837;48.916;2.336;2023-11-21T12:31:39;6.05;;;1.25;;
52972;SDS011;38837;48.916;2.336;2023-11-21T12:33:41;5.28;;;1.08;;
52972;SDS011;38837;48.916;2.336;2023-11-21T12:35:43;6.43;;;1.17;;
52972;SDS011;38837;48.916;2.336;2023-11-21T12:37:45;3.85;;;1.27;;
52972;SDS011;38837;48.916;2.336;2023-11-21T12:39:50;5.00;;;1.42;;
52972;SDS011;38837;48.916;2.336;2023-11-21T12:41:54;7.15;;;1.60;;
52972;SDS011;38837;48.916;2.336;2023-11-21T12:43:56;8.35;;;1.40;;
52972;SDS011;38837;48.916;2.336;2023-11-21T12:46:08;4.18;;;1.42;;
52972;SDS011;38837;48.916;2.336;2023-11-21T12:48:11;5.63;;;1.52;;